sensor_id;sensor_type;location;lat;lon;timestamp;temperature;humidity
3727;DHT22;1879;45.876;12.300;2023-02-19T00:02:02;10.10;99.90
3727;DHT22;1879;45.876;12.300;2023-02-19T00:04:32;10.10;99.90
3727;DHT22;1879;45.876;12.300;2023-02-19T00:07:00;10.20;99.90
3727;DHT22;1879;45.876;12.300;2023-02-19T00:09:28;10.20;99.90
3727;DHT22;1879;45.876;12.300;2023-02-19T00:11:57;10.20;99.90
3727;DHT22;1879;45.876;12.300;2023-02-19T00:14:25;10.10;99.90
3727;DHT22;1879;45.876;12.300;2023-02-19T00:16:54;10.20;99.90
3727;DHT22;1879;45.876;12.300;2023-02-19T00:19:22;10.10;99.90
3727;DHT22;1879;45.876;12.300;2023-02-19T00:21:53;10.20;99.90
3727;DHT22;1879;45.876;12.300;2023-02-19T00:24:22;10.20;99.90
3727;DHT22;1879;45.876;12.300;2023-02-19T00:26:50;10.10;99.90
3727;DHT22;1879;45.876;12.300;2023-02-19T00:29:20;10.10;99.90
3727;DHT22;1879;45.876;12.300;2023-02-19T00:31:50;10.20;99.90
3727;DHT22;1879;45.876;12.300;2023-02-19T00:34:19;10.20;99.90
3727;DHT22;1879;45.876;12.300;2023-02-19T00:36:48;10.20;99.90
3727;DHT22;1879;45.876;12.300;2023-02-19T00:39:18;10.20;99.90
3727;DHT22;1879;45.876;12.300;2023-02-19T00:41:49;10.10;99.90
3727;DHT22;1879;45.876;12.300;2023-02-19T00:44:17;10.10;99.90
3727;DHT22;1879;45.876;12.300;2023-02-19T00:46:47;10.10;99.90
3727;DHT22;1879;45.876;12.300;2023-02-19T00:49:18;10.10;99.90
3727;DHT22;1879;45.876;12.300;2023-02-19T00:51:48;10.20;99.90
3727;DHT22;1879;45.876;12.300;2023-02-19T00:54:18;10.10;99.90
3727;DHT22;1879;45.876;12.300;2023-02-19T00:56:47;10.10;99.90
3727;DHT22;1879;45.876;12.300;2023-02-19T00:59:16;10.10;99.90
3727;DHT22;1879;45.876;12.300;2023-02-19T01:01:44;10.10;99.90
3727;DHT22;1879;45.876;12.300;2023-02-19T01:04:12;10.10;99.90
3727;DHT22;1879;45.876;12.300;2023-02-19T01:06:41;10.10;99.90
3727;DHT22;1879;45.876;12.300;2023-02-19T01:09:08;10.20;99.90
3727;DHT22;1879;45.876;12.300;2023-02-19T01:11:36;10.10;99.90
3727;DHT22;1879;45.876;12.300;2023-02-19T01:14:03;10.10;99.90
3727;DHT22;1879;45.876;12.300;2023-02-19T01:16:30;10.10;99.90
3727;DHT22;1879;45.876;12.300;2023-02-19T01:18:57;10.10;99.90
3727;DHT22;1879;45.876;12.300;2023-02-19T01:21:26;10.10;99.90
3727;DHT22;1879;45.876;12.300;2023-02-19T01:23:53;10.10;99.90
3727;DHT22;1879;45.876;12.300;2023-02-19T01:26:23;10.10;99.90
3727;DHT22;1879;45.876;12.300;2023-02-19T01:28:52;10.20;99.90
3727;DHT22;1879;45.876;12.300;2023-02-19T01:31:21;10.10;99.90
3727;DHT22;1879;45.876;12.300;2023-02-19T01:33:50;10.10;99.90
3727;DHT22;1879;45.876;12.300;2023-02-19T01:36:17;10.10;99.90
3727;DHT22;1879;45.876;12.300;2023-02-19T01:38:45;10.10;99.90
3727;DHT22;1879;45.876;12.300;2023-02-19T01:41:14;10.10;99.90
3727;DHT22;1879;45.876;12.300;2023-02-19T01:43:59;10.10;99.90
3727;DHT22;1879;45.876;12.300;2023-02-19T01:46:28;10.10;99.90
3727;DHT22;1879;45.876;12.300;2023-02-19T01:48:57;10.10;99.90
3727;DHT22;1879;45.876;12.300;2023-02-19T01:51:26;10.10;99.90
3727;DHT22;1879;45.876;12.300;2023-02-19T01:53:57;10.00;99.90
3727;DHT22;1879;45.876;12.300;2023-02-19T01:56:25;10.00;99.90
3727;DHT22;1879;45.876;12.300;2023-02-19T01:58:53;10.10;99.90
3727;DHT22;1879;45.876;12.300;2023-02-19T02:01:21;10.10;99.90
3727;DHT22;1879;45.876;12.300;2023-02-19T02:03:48;10.00;99.90
3727;DHT22;1879;45.876;12.300;2023-02-19T02:06:20;10.00;99.90
3727;DHT22;1879;45.876;12.300;2023-02-19T02:08:50;10.00;99.90
3727;DHT22;1879;45.876;12.300;2023-02-19T02:11:35;10.00;99.90
3727;DHT22;1879;45.876;12.300;2023-02-19T02:14:02;10.00;99.90
3727;DHT22;1879;45.876;12.300;2023-02-19T02:16:39;10.10;99.90
3727;DHT22;1879;45.876;12.300;2023-02-19T02:19:19;10.10;99.90
3727;DHT22;1879;45.876;12.300;2023-02-19T02:22:01;10.10;99.90
3727;DHT22;1879;45.876;12.300;2023-02-19T02:27:50;10.10;99.90
3727;DHT22;1879;45.876;12.300;2023-02-19T02:30:32;10.10;99.90
3727;DHT22;1879;45.876;12.300;2023-02-19T02:33:10;10.10;99.90
3727;DHT22;1879;45.876;12.300;2023-02-19T02:35:41;10.10;99.90
3727;DHT22;1879;45.876;12.300;2023-02-19T02:38:11;10.10;99.90
3727;DHT22;1879;45.876;12.300;2023-02-19T02:40:42;10.00;99.90
3727;DHT22;1879;45.876;12.300;2023-02-19T02:43:10;10.00;99.90
3727;DHT22;1879;45.876;12.300;2023-02-19T02:45:38;10.00;99.90
3727;DHT22;1879;45.876;12.300;2023-02-19T02:48:21;10.00;99.90
3727;DHT22;1879;45.876;12.300;2023-02-19T02:50:52;10.00;99.90
3727;DHT22;1879;45.876;12.300;2023-02-19T02:53:25;10.00;99.90
3727;DHT22;1879;45.876;12.300;2023-02-19T02:56:11;10.00;99.90
3727;DHT22;1879;45.876;12.300;2023-02-19T02:58:39;9.90;99.90
3727;DHT22;1879;45.876;12.300;2023-02-19T03:01:11;9.90;99.90
3727;DHT22;1879;45.876;12.300;2023-02-19T03:04:02;9.90;99.90
3727;DHT22;1879;45.876;12.300;2023-02-19T03:06:33;9.90;99.90
3727;DHT22;1879;45.876;12.300;2023-02-19T03:09:07;9.90;99.90
3727;DHT22;1879;45.876;12.300;2023-02-19T03:11:39;9.90;99.90
3727;DHT22;1879;45.876;12.300;2023-02-19T03:14:27;9.90;99.90
3727;DHT22;1879;45.876;12.300;2023-02-19T03:17:19;9.90;99.90
3727;DHT22;1879;45.876;12.300;2023-02-19T03:20:11;9.90;99.90
3727;DHT22;1879;45.876;12.300;2023-02-19T03:22:41;9.90;99.90
3727;DHT22;1879;45.876;12.300;2023-02-19T03:25:12;9.90;99.90
3727;DHT22;1879;45.876;12.300;2023-02-19T03:28:00;9.80;99.90
3727;DHT22;1879;45.876;12.300;2023-02-19T03:30:30;9.90;99.90
3727;DHT22;1879;45.876;12.300;2023-02-19T03:33:02;9.90;99.90
3727;DHT22;1879;45.876;12.300;2023-02-19T03:35:35;9.80;99.90
3727;DHT22;1879;45.876;12.300;2023-02-19T03:38:07;9.80;99.90
3727;DHT22;1879;45.876;12.300;2023-02-19T03:40:42;9.80;99.90
3727;DHT22;1879;45.876;12.300;2023-02-19T03:43:17;9.80;99.90
3727;DHT22;1879;45.876;12.300;2023-02-19T03:45:51;9.80;99.90
3727;DHT22;1879;45.876;12.300;2023-02-19T03:48:27;9.80;99.90
3727;DHT22;1879;45.876;12.300;2023-02-19T03:51:04;9.80;99.90
3727;DHT22;1879;45.876;12.300;2023-02-19T03:53:40;9.80;99.90
3727;DHT22;1879;45.876;12.300;2023-02-19T03:56:15;9.80;99.90
3727;DHT22;1879;45.876;12.300;2023-02-19T03:58:50;9.80;99.90
3727;DHT22;1879;45.876;12.300;2023-02-19T04:01:23;9.80;99.90
3727;DHT22;1879;45.876;12.300;2023-02-19T04:03:56;9.80;99.90
3727;DHT22;1879;45.876;12.300;2023-02-19T04:06:26;9.70;99.90
3727;DHT22;1879;45.876;12.300;2023-02-19T04:08:57;9.70;99.90
3727;DHT22;1879;45.876;12.300;2023-02-19T04:11:25;9.70;99.90
3727;DHT22;1879;45.876;12.300;2023-02-19T04:13:57;9.60;99.90
3727;DHT22;1879;45.876;12.300;2023-02-19T04:16:27;9.70;99.90
3727;DHT22;1879;45.876;12.300;2023-02-19T04:18:58;9.60;99.90
3727;DHT22;1879;45.876;12.300;2023-02-19T04:21:30;9.60;99.90
3727;DHT22;1879;45.876;12.300;2023-02-19T04:23:59;9.70;99.90
3727;DHT22;1879;45.876;12.300;2023-02-19T04:26:30;9.70;99.90
3727;DHT22;1879;45.876;12.300;2023-02-19T04:28:58;9.80;99.90
3727;DHT22;1879;45.876;12.300;2023-02-19T04:31:27;9.70;99.90
3727;DHT22;1879;45.876;12.300;2023-02-19T04:33:57;9.70;99.90
3727;DHT22;1879;45.876;12.300;2023-02-19T04:36:25;9.60;99.90
3727;DHT22;1879;45.876;12.300;2023-02-19T04:38:53;9.60;99.90
3727;DHT22;1879;45.876;12.300;2023-02-19T04:41:20;9.60;99.90
3727;DHT22;1879;45.876;12.300;2023-02-19T04:43:47;9.60;99.90
3727;DHT22;1879;45.876;12.300;2023-02-19T04:46:14;9.70;99.90
3727;DHT22;1879;45.876;12.300;2023-02-19T04:48:41;9.70;99.90
3727;DHT22;1879;45.876;12.300;2023-02-19T04:51:10;9.70;99.90
3727;DHT22;1879;45.876;12.300;2023-02-19T04:53:37;9.70;99.90
3727;DHT22;1879;45.876;12.300;2023-02-19T04:56:05;9.70;99.90
3727;DHT22;1879;45.876;12.300;2023-02-19T04:58:32;9.70;99.90
3727;DHT22;1879;45.876;12.300;2023-02-19T05:01:00;9.80;99.90
3727;DHT22;1879;45.876;12.300;2023-02-19T05:03:27;9.70;99.90
3727;DHT22;1879;45.876;12.300;2023-02-19T05:05:53;9.70;99.90
3727;DHT22;1879;45.876;12.300;2023-02-19T05:08:22;9.80;99.90
3727;DHT22;1879;45.876;12.300;2023-02-19T05:10:49;9.80;99.90
3727;DHT22;1879;45.876;12.300;2023-02-19T05:13:16;9.80;99.90
3727;DHT22;1879;45.876;12.300;2023-02-19T05:15:53;9.70;99.90
3727;DHT22;1879;45.876;12.300;2023-02-19T05:18:20;9.70;99.90
3727;DHT22;1879;45.876;12.300;2023-02-19T05:20:48;9.70;99.90
3727;DHT22;1879;45.876;12.300;2023-02-19T05:23:15;9.80;99.90
3727;DHT22;1879;45.876;12.300;2023-02-19T05:25:44;9.80;99.90
3727;DHT22;1879;45.876;12.300;2023-02-19T05:28:11;9.90;99.90
3727;DHT22;1879;45.876;12.300;2023-02-19T05:30:44;9.80;99.90
3727;DHT22;1879;45.876;12.300;2023-02-19T05:33:11;9.90;99.90
3727;DHT22;1879;45.876;12.300;2023-02-19T05:35:40;9.90;99.90
3727;DHT22;1879;45.876;12.300;2023-02-19T05:38:07;9.80;99.90
3727;DHT22;1879;45.876;12.300;2023-02-19T05:40:34;9.70;99.90
3727;DHT22;1879;45.876;12.300;2023-02-19T05:43:04;9.70;99.90
3727;DHT22;1879;45.876;12.300;2023-02-19T05:45:31;9.70;99.90
3727;DHT22;1879;45.876;12.300;2023-02-19T05:47:58;9.60;99.90
3727;DHT22;1879;45.876;12.300;2023-02-19T05:50:25;9.70;99.90
3727;DHT22;1879;45.876;12.300;2023-02-19T05:52:52;9.70;99.90
3727;DHT22;1879;45.876;12.300;2023-02-19T05:55:19;9.70;99.90
3727;DHT22;1879;45.876;12.300;2023-02-19T05:57:47;9.70;99.90
3727;DHT22;1879;45.876;12.300;2023-02-19T06:00:17;9.70;99.90
3727;DHT22;1879;45.876;12.300;2023-02-19T06:02:45;9.70;99.90
3727;DHT22;1879;45.876;12.300;2023-02-19T06:05:12;9.80;99.90
3727;DHT22;1879;45.876;12.300;2023-02-19T06:07:40;9.80;99.90
3727;DHT22;1879;45.876;12.300;2023-02-19T06:10:08;9.70;99.90
3727;DHT22;1879;45.876;12.300;2023-02-19T06:12:36;9.80;99.90
3727;DHT22;1879;45.876;12.300;2023-02-19T06:15:03;9.70;99.90
3727;DHT22;1879;45.876;12.300;2023-02-19T06:17:33;9.70;99.90
3727;DHT22;1879;45.876;12.300;2023-02-19T06:20:01;9.70;99.90
3727;DHT22;1879;45.876;12.300;2023-02-19T06:22:28;9.70;99.90
3727;DHT22;1879;45.876;12.300;2023-02-19T06:24:55;9.60;99.90
3727;DHT22;1879;45.876;12.300;2023-02-19T06:27:22;9.70;99.90
3727;DHT22;1879;45.876;12.300;2023-02-19T06:29:49;9.70;99.90
3727;DHT22;1879;45.876;12.300;2023-02-19T06:32:16;9.80;99.90
3727;DHT22;1879;45.876;12.300;2023-02-19T06:34:44;9.80;99.90
3727;DHT22;1879;45.876;12.300;2023-02-19T06:37:11;9.80;99.90
3727;DHT22;1879;45.876;12.300;2023-02-19T06:39:38;9.80;99.90
3727;DHT22;1879;45.876;12.300;2023-02-19T06:42:05;9.80;99.90
3727;DHT22;1879;45.876;12.300;2023-02-19T06:44:32;9.80;99.90
3727;DHT22;1879;45.876;12.300;2023-02-19T06:46:59;9.80;99.90
3727;DHT22;1879;45.876;12.300;2023-02-19T06:49:26;9.80;99.90
3727;DHT22;1879;45.876;12.300;2023-02-19T06:51:55;9.80;99.90
3727;DHT22;1879;45.876;12.300;2023-02-19T06:54:22;9.90;99.90
3727;DHT22;1879;45.876;12.300;2023-02-19T06:56:50;9.80;99.90
3727;DHT22;1879;45.876;12.300;2023-02-19T06:59:17;9.70;99.90
3727;DHT22;1879;45.876;12.300;2023-02-19T07:01:45;9.70;99.90
3727;DHT22;1879;45.876;12.300;2023-02-19T07:04:12;9.80;99.90
3727;DHT22;1879;45.876;12.300;2023-02-19T07:06:39;9.80;99.90
3727;DHT22;1879;45.876;12.300;2023-02-19T07:09:08;9.90;99.90
3727;DHT22;1879;45.876;12.300;2023-02-19T07:11:37;9.80;99.90
3727;DHT22;1879;45.876;12.300;2023-02-19T07:14:06;9.70;99.90
3727;DHT22;1879;45.876;12.300;2023-02-19T07:16:33;9.60;99.90
3727;DHT22;1879;45.876;12.300;2023-02-19T07:19:02;9.60;99.90
3727;DHT22;1879;45.876;12.300;2023-02-19T07:21:29;9.70;99.90
3727;DHT22;1879;45.876;12.300;2023-02-19T07:23:56;9.70;99.90
3727;DHT22;1879;45.876;12.300;2023-02-19T07:26:26;9.80;99.90
3727;DHT22;1879;45.876;12.300;2023-02-19T07:28:54;9.90;99.90
3727;DHT22;1879;45.876;12.300;2023-02-19T07:31:22;9.80;99.90
3727;DHT22;1879;45.876;12.300;2023-02-19T07:33:50;9.80;99.90
3727;DHT22;1879;45.876;12.300;2023-02-19T07:36:18;9.80;99.90
3727;DHT22;1879;45.876;12.300;2023-02-19T07:38:45;9.90;99.90
3727;DHT22;1879;45.876;12.300;2023-02-19T07:41:12;9.90;99.90
3727;DHT22;1879;45.876;12.300;2023-02-19T07:43:40;9.90;99.90
3727;DHT22;1879;45.876;12.300;2023-02-19T07:46:09;9.90;99.90
3727;DHT22;1879;45.876;12.300;2023-02-19T07:48:37;10.00;99.90
3727;DHT22;1879;45.876;12.300;2023-02-19T07:51:06;10.10;99.90
3727;DHT22;1879;45.876;12.300;2023-02-19T07:53:34;10.10;99.90
3727;DHT22;1879;45.876;12.300;2023-02-19T07:56:04;10.10;99.90
3727;DHT22;1879;45.876;12.300;2023-02-19T07:58:32;10.10;99.90
3727;DHT22;1879;45.876;12.300;2023-02-19T08:01:08;10.10;99.90
3727;DHT22;1879;45.876;12.300;2023-02-19T08:03:35;10.10;99.90
3727;DHT22;1879;45.876;12.300;2023-02-19T08:06:01;10.20;99.90
3727;DHT22;1879;45.876;12.300;2023-02-19T08:08:28;10.20;99.90
3727;DHT22;1879;45.876;12.300;2023-02-19T08:10:58;10.20;99.90
3727;DHT22;1879;45.876;12.300;2023-02-19T08:13:43;10.20;99.90
3727;DHT22;1879;45.876;12.300;2023-02-19T08:16:13;10.20;99.90
3727;DHT22;1879;45.876;12.300;2023-02-19T08:18:42;10.20;99.90
3727;DHT22;1879;45.876;12.300;2023-02-19T08:21:09;10.20;99.90
3727;DHT22;1879;45.876;12.300;2023-02-19T08:23:37;10.30;99.90
3727;DHT22;1879;45.876;12.300;2023-02-19T08:26:04;10.30;99.90
3727;DHT22;1879;45.876;12.300;2023-02-19T08:28:32;10.20;99.90
3727;DHT22;1879;45.876;12.300;2023-02-19T08:31:00;10.30;99.90
3727;DHT22;1879;45.876;12.300;2023-02-19T08:33:29;10.30;99.90
3727;DHT22;1879;45.876;12.300;2023-02-19T08:35:59;10.30;99.90
3727;DHT22;1879;45.876;12.300;2023-02-19T08:38:29;10.30;99.90
3727;DHT22;1879;45.876;12.300;2023-02-19T08:40:56;10.40;99.90
3727;DHT22;1879;45.876;12.300;2023-02-19T08:43:23;10.40;99.90
3727;DHT22;1879;45.876;12.300;2023-02-19T08:45:52;10.40;99.90
3727;DHT22;1879;45.876;12.300;2023-02-19T08:48:20;10.40;99.90
3727;DHT22;1879;45.876;12.300;2023-02-19T08:50:54;10.40;99.90
3727;DHT22;1879;45.876;12.300;2023-02-19T08:53:22;10.40;99.90
3727;DHT22;1879;45.876;12.300;2023-02-19T08:55:49;10.50;99.90
3727;DHT22;1879;45.876;12.300;2023-02-19T08:58:16;10.60;99.90
3727;DHT22;1879;45.876;12.300;2023-02-19T09:00:43;10.50;99.90
3727;DHT22;1879;45.876;12.300;2023-02-19T09:03:10;10.50;99.90
3727;DHT22;1879;45.876;12.300;2023-02-19T09:05:38;10.40;99.90
3727;DHT22;1879;45.876;12.300;2023-02-19T09:08:06;10.40;99.90
3727;DHT22;1879;45.876;12.300;2023-02-19T09:10:33;10.40;99.90
3727;DHT22;1879;45.876;12.300;2023-02-19T09:13:00;10.50;99.90
3727;DHT22;1879;45.876;12.300;2023-02-19T09:15:28;10.50;99.90
3727;DHT22;1879;45.876;12.300;2023-02-19T09:17:55;10.30;99.90
3727;DHT22;1879;45.876;12.300;2023-02-19T09:20:22;10.30;99.90
3727;DHT22;1879;45.876;12.300;2023-02-19T09:22:49;10.30;99.90
3727;DHT22;1879;45.876;12.300;2023-02-19T09:25:17;10.20;99.90
3727;DHT22;1879;45.876;12.300;2023-02-19T09:27:44;10.20;99.90
3727;DHT22;1879;45.876;12.300;2023-02-19T09:30:12;10.30;99.90
3727;DHT22;1879;45.876;12.300;2023-02-19T09:32:38;10.40;99.90
3727;DHT22;1879;45.876;12.300;2023-02-19T09:35:06;10.40;99.90
3727;DHT22;1879;45.876;12.300;2023-02-19T09:37:33;10.50;99.90
3727;DHT22;1879;45.876;12.300;2023-02-19T09:40:00;10.50;99.90
3727;DHT22;1879;45.876;12.300;2023-02-19T09:42:30;10.50;99.90
3727;DHT22;1879;45.876;12.300;2023-02-19T09:45:00;10.50;99.90
3727;DHT22;1879;45.876;12.300;2023-02-19T09:47:29;10.50;99.90
3727;DHT22;1879;45.876;12.300;2023-02-19T09:49:59;10.50;99.90
3727;DHT22;1879;45.876;12.300;2023-02-19T09:52:31;10.60;99.90
3727;DHT22;1879;45.876;12.300;2023-02-19T09:55:13;10.60;99.90
3727;DHT22;1879;45.876;12.300;2023-02-19T09:57:42;10.80;99.90
3727;DHT22;1879;45.876;12.300;2023-02-19T10:00:20;10.80;99.90
3727;DHT22;1879;45.876;12.300;2023-02-19T10:02:51;10.80;99.90
3727;DHT22;1879;45.876;12.300;2023-02-19T10:05:18;10.70;99.90
3727;DHT22;1879;45.876;12.300;2023-02-19T10:07:48;10.70;99.90
3727;DHT22;1879;45.876;12.300;2023-02-19T10:10:23;10.80;99.90
3727;DHT22;1879;45.876;12.300;2023-02-19T10:12:55;10.90;99.90
3727;DHT22;1879;45.876;12.300;2023-02-19T10:15:30;10.90;99.90
3727;DHT22;1879;45.876;12.300;2023-02-19T10:17:58;11.00;99.90
3727;DHT22;1879;45.876;12.300;2023-02-19T10:20:29;10.90;99.90
3727;DHT22;1879;45.876;12.300;2023-02-19T10:23:00;10.90;99.90
3727;DHT22;1879;45.876;12.300;2023-02-19T10:25:28;10.90;99.90
3727;DHT22;1879;45.876;12.300;2023-02-19T10:28:01;10.80;99.90
3727;DHT22;1879;45.876;12.300;2023-02-19T10:30:30;10.80;99.90
3727;DHT22;1879;45.876;12.300;2023-02-19T10:32:59;10.80;99.90
3727;DHT22;1879;45.876;12.300;2023-02-19T10:35:27;10.80;99.90
3727;DHT22;1879;45.876;12.300;2023-02-19T10:37:55;10.80;99.90
3727;DHT22;1879;45.876;12.300;2023-02-19T10:40:24;10.80;99.90
3727;DHT22;1879;45.876;12.300;2023-02-19T10:42:55;10.70;99.90
3727;DHT22;1879;45.876;12.300;2023-02-19T10:45:31;10.70;99.90
3727;DHT22;1879;45.876;12.300;2023-02-19T10:48:00;10.80;99.90
3727;DHT22;1879;45.876;12.300;2023-02-19T10:50:30;10.90;99.90
3727;DHT22;1879;45.876;12.300;2023-02-19T10:52:58;10.90;99.90
3727;DHT22;1879;45.876;12.300;2023-02-19T10:55:29;11.00;99.90
3727;DHT22;1879;45.876;12.300;2023-02-19T10:57:57;11.00;99.90
3727;DHT22;1879;45.876;12.300;2023-02-19T11:00:30;11.00;99.90
3727;DHT22;1879;45.876;12.300;2023-02-19T11:03:17;10.90;99.90
3727;DHT22;1879;45.876;12.300;2023-02-19T11:05:57;10.90;99.90
3727;DHT22;1879;45.876;12.300;2023-02-19T11:08:25;11.00;99.90
3727;DHT22;1879;45.876;12.300;2023-02-19T11:10:52;11.00;99.90
3727;DHT22;1879;45.876;12.300;2023-02-19T11:13:25;11.00;99.90
3727;DHT22;1879;45.876;12.300;2023-02-19T11:15:56;11.10;99.90
3727;DHT22;1879;45.876;12.300;2023-02-19T11:18:25;11.20;99.90
3727;DHT22;1879;45.876;12.300;2023-02-19T11:20:55;11.20;99.90
3727;DHT22;1879;45.876;12.300;2023-02-19T11:23:26;11.30;99.90
3727;DHT22;1879;45.876;12.300;2023-02-19T11:25:55;11.30;99.90
3727;DHT22;1879;45.876;12.300;2023-02-19T11:28:29;11.40;99.90
3727;DHT22;1879;45.876;12.300;2023-02-19T11:31:23;11.60;99.90
3727;DHT22;1879;45.876;12.300;2023-02-19T11:33:55;11.70;99.90
3727;DHT22;1879;45.876;12.300;2023-02-19T11:36:26;11.80;99.90
3727;DHT22;1879;45.876;12.300;2023-02-19T11:38:54;12.00;99.90
3727;DHT22;1879;45.876;12.300;2023-02-19T11:41:28;12.10;99.90
3727;DHT22;1879;45.876;12.300;2023-02-19T11:44:11;12.20;99.90
3727;DHT22;1879;45.876;12.300;2023-02-19T11:46:48;12.30;99.90
3727;DHT22;1879;45.876;12.300;2023-02-19T11:49:27;12.30;99.90
3727;DHT22;1879;45.876;12.300;2023-02-19T11:52:16;12.30;99.90
3727;DHT22;1879;45.876;12.300;2023-02-19T11:54:49;12.40;99.90
3727;DHT22;1879;45.876;12.300;2023-02-19T11:57:34;12.50;99.90
3727;DHT22;1879;45.876;12.300;2023-02-19T12:00:20;12.60;99.90
3727;DHT22;1879;45.876;12.300;2023-02-19T12:03:15;12.60;99.90
3727;DHT22;1879;45.876;12.300;2023-02-19T12:05:53;12.60;99.90
3727;DHT22;1879;45.876;12.300;2023-02-19T12:08:53;12.60;99.90
3727;DHT22;1879;45.876;12.300;2023-02-19T12:11:35;12.70;99.90
3727;DHT22;1879;45.876;12.300;2023-02-19T12:14:32;12.90;99.90
3727;DHT22;1879;45.876;12.300;2023-02-19T12:17:09;12.80;99.90
3727;DHT22;1879;45.876;12.300;2023-02-19T12:19:56;12.90;99.90
3727;DHT22;1879;45.876;12.300;2023-02-19T12:22:29;13.00;99.90
3727;DHT22;1879;45.876;12.300;2023-02-19T12:25:15;13.10;99.90
3727;DHT22;1879;45.876;12.300;2023-02-19T12:34:00;13.40;99.90
3727;DHT22;1879;45.876;12.300;2023-02-19T12:36:38;13.50;99.90
3727;DHT22;1879;45.876;12.300;2023-02-19T12:39:16;13.60;99.90
3727;DHT22;1879;45.876;12.300;2023-02-19T12:41:51;13.60;99.90
3727;DHT22;1879;45.876;12.300;2023-02-19T12:44:24;13.70;99.90
3727;DHT22;1879;45.876;12.300;2023-02-19T12:46:58;13.80;99.90
3727;DHT22;1879;45.876;12.300;2023-02-19T12:49:29;13.80;99.90
3727;DHT22;1879;45.876;12.300;2023-02-19T12:52:00;13.90;99.90
3727;DHT22;1879;45.876;12.300;2023-02-19T12:54:32;14.00;99.90
3727;DHT22;1879;45.876;12.300;2023-02-19T12:57:03;13.90;99.90
3727;DHT22;1879;45.876;12.300;2023-02-19T12:59:32;14.00;99.90
3727;DHT22;1879;45.876;12.300;2023-02-19T13:02:07;14.10;99.90
3727;DHT22;1879;45.876;12.300;2023-02-19T13:04:44;14.20;99.90
3727;DHT22;1879;45.876;12.300;2023-02-19T13:07:18;14.50;99.90
3727;DHT22;1879;45.876;12.300;2023-02-19T13:09:49;14.70;99.90
3727;DHT22;1879;45.876;12.300;2023-02-19T13:12:20;14.90;99.90
3727;DHT22;1879;45.876;12.300;2023-02-19T13:14:51;15.00;99.90
3727;DHT22;1879;45.876;12.300;2023-02-19T13:17:24;15.20;99.90
3727;DHT22;1879;45.876;12.300;2023-02-19T13:19:56;15.20;99.90
3727;DHT22;1879;45.876;12.300;2023-02-19T13:22:33;15.30;99.90
3727;DHT22;1879;45.876;12.300;2023-02-19T13:25:19;15.00;99.90
3727;DHT22;1879;45.876;12.300;2023-02-19T13:31:02;14.90;99.90
3727;DHT22;1879;45.876;12.300;2023-02-19T13:33:41;15.00;99.90
3727;DHT22;1879;45.876;12.300;2023-02-19T13:36:13;15.00;99.90
3727;DHT22;1879;45.876;12.300;2023-02-19T13:38:45;15.00;99.90
3727;DHT22;1879;45.876;12.300;2023-02-19T13:41:25;14.90;99.90
3727;DHT22;1879;45.876;12.300;2023-02-19T13:43:58;14.90;99.90
3727;DHT22;1879;45.876;12.300;2023-02-19T13:46:34;14.90;99.90
3727;DHT22;1879;45.876;12.300;2023-02-19T13:49:39;15.00;99.90
3727;DHT22;1879;45.876;12.300;2023-02-19T13:52:38;15.10;99.90
3727;DHT22;1879;45.876;12.300;2023-02-19T13:58:38;14.90;99.90
3727;DHT22;1879;45.876;12.300;2023-02-19T14:01:17;14.90;99.90
3727;DHT22;1879;45.876;12.300;2023-02-19T14:03:52;15.00;99.90
3727;DHT22;1879;45.876;12.300;2023-02-19T14:06:20;15.20;99.90
3727;DHT22;1879;45.876;12.300;2023-02-19T14:08:54;15.20;99.90
3727;DHT22;1879;45.876;12.300;2023-02-19T14:14:33;15.30;99.90
3727;DHT22;1879;45.876;12.300;2023-02-19T14:17:02;15.40;99.90
3727;DHT22;1879;45.876;12.300;2023-02-19T14:19:50;15.50;99.90
3727;DHT22;1879;45.876;12.300;2023-02-19T14:22:46;15.60;99.60
3727;DHT22;1879;45.876;12.300;2023-02-19T14:25:26;15.90;99.70
3727;DHT22;1879;45.876;12.300;2023-02-19T14:27:56;16.20;99.50
3727;DHT22;1879;45.876;12.300;2023-02-19T14:30:27;16.20;99.00
3727;DHT22;1879;45.876;12.300;2023-02-19T14:32:56;16.20;98.90
3727;DHT22;1879;45.876;12.300;2023-02-19T14:35:26;16.20;98.90
3727;DHT22;1879;45.876;12.300;2023-02-19T14:37:56;16.00;98.30
3727;DHT22;1879;45.876;12.300;2023-02-19T14:40:26;15.70;98.60
3727;DHT22;1879;45.876;12.300;2023-02-19T14:42:55;15.60;98.60
3727;DHT22;1879;45.876;12.300;2023-02-19T14:45:23;15.50;98.90
3727;DHT22;1879;45.876;12.300;2023-02-19T14:47:55;15.40;99.20
3727;DHT22;1879;45.876;12.300;2023-02-19T14:50:27;15.20;99.40
3727;DHT22;1879;45.876;12.300;2023-02-19T14:52:57;15.20;99.50
3727;DHT22;1879;45.876;12.300;2023-02-19T14:55:27;15.20;99.60
3727;DHT22;1879;45.876;12.300;2023-02-19T14:58:00;15.00;99.60
3727;DHT22;1879;45.876;12.300;2023-02-19T15:00:33;14.90;99.70
3727;DHT22;1879;45.876;12.300;2023-02-19T15:03:03;14.90;99.80
3727;DHT22;1879;45.876;12.300;2023-02-19T15:05:32;15.00;99.80
3727;DHT22;1879;45.876;12.300;2023-02-19T15:08:01;15.10;99.90
3727;DHT22;1879;45.876;12.300;2023-02-19T15:10:31;15.00;99.70
3727;DHT22;1879;45.876;12.300;2023-02-19T15:13:01;15.10;99.90
3727;DHT22;1879;45.876;12.300;2023-02-19T15:15:31;15.20;99.90
3727;DHT22;1879;45.876;12.300;2023-02-19T15:18:01;15.30;99.70
3727;DHT22;1879;45.876;12.300;2023-02-19T15:20:33;15.20;99.50
3727;DHT22;1879;45.876;12.300;2023-02-19T15:23:04;15.10;99.20
3727;DHT22;1879;45.876;12.300;2023-02-19T15:25:33;15.00;99.40
3727;DHT22;1879;45.876;12.300;2023-02-19T15:28:20;14.90;99.40
3727;DHT22;1879;45.876;12.300;2023-02-19T15:30:47;14.90;99.60
3727;DHT22;1879;45.876;12.300;2023-02-19T15:33:16;14.70;99.90
3727;DHT22;1879;45.876;12.300;2023-02-19T15:35:49;14.60;99.90
3727;DHT22;1879;45.876;12.300;2023-02-19T15:38:17;14.50;99.90
3727;DHT22;1879;45.876;12.300;2023-02-19T15:40:46;14.40;99.90
3727;DHT22;1879;45.876;12.300;2023-02-19T15:43:20;14.30;99.90
3727;DHT22;1879;45.876;12.300;2023-02-19T15:45:50;14.20;99.90
3727;DHT22;1879;45.876;12.300;2023-02-19T15:48:20;14.10;99.90
3727;DHT22;1879;45.876;12.300;2023-02-19T15:50:53;14.00;99.90
3727;DHT22;1879;45.876;12.300;2023-02-19T15:53:26;13.80;99.90
3727;DHT22;1879;45.876;12.300;2023-02-19T15:56:01;13.80;99.90
3727;DHT22;1879;45.876;12.300;2023-02-19T15:58:34;13.70;99.90
3727;DHT22;1879;45.876;12.300;2023-02-19T16:01:05;13.60;99.90
3727;DHT22;1879;45.876;12.300;2023-02-19T16:03:34;13.50;99.90
3727;DHT22;1879;45.876;12.300;2023-02-19T16:06:05;13.50;99.90
3727;DHT22;1879;45.876;12.300;2023-02-19T16:08:36;13.40;99.90
3727;DHT22;1879;45.876;12.300;2023-02-19T16:11:06;13.30;99.90
3727;DHT22;1879;45.876;12.300;2023-02-19T16:13:48;13.30;99.90
3727;DHT22;1879;45.876;12.300;2023-02-19T16:16:20;13.20;99.90
3727;DHT22;1879;45.876;12.300;2023-02-19T16:18:50;13.10;99.90
3727;DHT22;1879;45.876;12.300;2023-02-19T16:21:21;13.00;99.90
3727;DHT22;1879;45.876;12.300;2023-02-19T16:23:51;12.90;99.90
3727;DHT22;1879;45.876;12.300;2023-02-19T16:26:21;12.70;99.90
3727;DHT22;1879;45.876;12.300;2023-02-19T16:28:50;12.60;99.90
3727;DHT22;1879;45.876;12.300;2023-02-19T16:31:19;12.60;99.90
3727;DHT22;1879;45.876;12.300;2023-02-19T16:33:47;12.50;99.90
3727;DHT22;1879;45.876;12.300;2023-02-19T16:36:21;12.30;99.90